RYR3MT LEMG-GCTS
Flight info
| Callsign | RYR3MT |
|---|---|
| Flight time | 2h 13m |
| Altitude | 35000 |
| Route | PIMOS N869 GALTO UN869 MABAP DCT RUSIK |
| Aircraft | B738/M-SDE2E3FGHIRWXY/LB1 |
Departure
| Time | 2026-05-05 19:38 |
|---|---|
| Airport | Málaga-Costa del Sol Airport (LEMG) |
Arrival
| Time | 2026-05-05 21:52 |
|---|---|
| Airport | Tenerife Sur Airport (GCTS) |
| Time | Latitude | Longitude | Altitude | Speed | Heading |
|---|---|---|---|---|---|
| 2026-05-05 19:07 | 36.67463 | -4.49213 | 43 ft | 0 kts | 330° |
| 2026-05-05 19:30 | 36.67457 | -4.49209 | 43 ft | 2 kts | 330° |
| 2026-05-05 19:30 | 36.67444 | -4.49199 | 43 ft | 2 kts | 330° |
| 2026-05-05 19:30 | 36.67432 | -4.49190 | 43 ft | 2 kts | 330° |
| 2026-05-05 19:30 | 36.67423 | -4.49185 | 42 ft | 1 kts | 322° |
| 2026-05-05 19:31 | 36.67417 | -4.49169 | 43 ft | 2 kts | 269° |
| 2026-05-05 19:31 | 36.67421 | -4.49152 | 44 ft | 0 kts | 227° |
| 2026-05-05 19:31 | 36.67426 | -4.49148 | 44 ft | 0 kts | 218° |
| 2026-05-05 19:31 | 36.67428 | -4.49146 | 44 ft | 0 kts | 220° |
| 2026-05-05 19:32 | 36.67427 | -4.49146 | 44 ft | 0 kts | 220° |
| 2026-05-05 19:32 | 36.67426 | -4.49147 | 44 ft | 0 kts | 220° |
| 2026-05-05 19:33 | 36.67405 | -4.49172 | 42 ft | 10 kts | 223° |
| 2026-05-05 19:33 | 36.67348 | -4.49254 | 38 ft | 13 kts | 269° |
| 2026-05-05 19:33 | 36.67415 | -4.49374 | 37 ft | 21 kts | 310° |
| 2026-05-05 19:33 | 36.67528 | -4.49535 | 36 ft | 27 kts | 313° |
| 2026-05-05 19:34 | 36.67654 | -4.49709 | 40 ft | 25 kts | 311° |
| 2026-05-05 19:34 | 36.67765 | -4.49850 | 41 ft | 18 kts | 343° |
| 2026-05-05 19:34 | 36.67876 | -4.49766 | 45 ft | 21 kts | 42° |
| 2026-05-05 19:35 | 36.68160 | -4.49453 | 34 ft | 30 kts | 42° |
| 2026-05-05 19:35 | 36.68280 | -4.49292 | 32 ft | 21 kts | 85° |
| 2026-05-05 19:35 | 36.68209 | -4.49092 | 29 ft | 30 kts | 118° |
| 2026-05-05 19:35 | 36.68114 | -4.48867 | 27 ft | 27 kts | 118° |
| 2026-05-05 19:36 | 36.68029 | -4.48665 | 28 ft | 24 kts | 117° |
| 2026-05-05 19:36 | 36.67940 | -4.48452 | 30 ft | 31 kts | 117° |
| 2026-05-05 19:36 | 36.67851 | -4.48241 | 25 ft | 17 kts | 118° |
| 2026-05-05 19:36 | 36.67816 | -4.48106 | 22 ft | 14 kts | 64° |
| 2026-05-05 19:37 | 36.67889 | -4.48048 | 24 ft | 11 kts | 27° |
| 2026-05-05 19:37 | 36.67956 | -4.48044 | 25 ft | 11 kts | 297° |
| 2026-05-05 19:37 | 36.68022 | -4.48201 | 27 ft | 45 kts | 297° |
| 2026-05-05 19:37 | 36.68277 | -4.48810 | 27 ft | 110 kts | 298° |
| 2026-05-05 19:38 | 36.68710 | -4.49842 | 31 ft | 160 kts | 299° |
| 2026-05-05 19:38 | 36.69257 | -4.51127 | 490 ft | 167 kts | 301° |
| 2026-05-05 19:38 | 36.70006 | -4.52227 | 1050 ft | 172 kts | 324° |
| 2026-05-05 19:38 | 36.70978 | -4.53074 | 1544 ft | 173 kts | 319° |
| 2026-05-05 19:39 | 36.71825 | -4.54249 | 1717 ft | 199 kts | 310° |
| 2026-05-05 19:39 | 36.72763 | -4.55595 | 2457 ft | 208 kts | 311° |
| 2026-05-05 19:39 | 36.73703 | -4.56917 | 3360 ft | 208 kts | 311° |
| 2026-05-05 19:39 | 36.74663 | -4.58268 | 4198 ft | 210 kts | 311° |
| 2026-05-05 19:40 | 36.75631 | -4.59636 | 4856 ft | 221 kts | 305° |
| 2026-05-05 19:40 | 36.76509 | -4.61237 | 5736 ft | 224 kts | 304° |
| 2026-05-05 19:40 | 36.77413 | -4.62795 | 6570 ft | 228 kts | 304° |
| 2026-05-05 19:40 | 36.78359 | -4.64386 | 7397 ft | 231 kts | 304° |
| 2026-05-05 19:41 | 36.79320 | -4.65996 | 8204 ft | 235 kts | 303° |
| 2026-05-05 19:41 | 36.80298 | -4.67629 | 8988 ft | 239 kts | 303° |
| 2026-05-05 19:41 | 36.81282 | -4.69272 | 9741 ft | 243 kts | 302° |
| 2026-05-05 19:41 | 36.82294 | -4.70961 | 10479 ft | 247 kts | 302° |
| 2026-05-05 19:42 | 36.83338 | -4.72705 | 11204 ft | 252 kts | 302° |
| 2026-05-05 19:42 | 36.84382 | -4.74463 | 11896 ft | 255 kts | 298° |
| 2026-05-05 19:42 | 36.85062 | -4.76473 | 12524 ft | 251 kts | 271° |
| 2026-05-05 19:42 | 36.84764 | -4.78538 | 13211 ft | 245 kts | 239° |
| 2026-05-05 19:43 | 36.83551 | -4.80078 | 13446 ft | 267 kts | 208° |
| 2026-05-05 19:43 | 36.81667 | -4.80556 | 13808 ft | 288 kts | 181° |
| 2026-05-05 19:43 | 36.79671 | -4.80439 | 14387 ft | 294 kts | 185° |
| 2026-05-05 19:43 | 36.77544 | -4.80732 | 14463 ft | 316 kts | 191° |
| 2026-05-05 19:44 | 36.75326 | -4.81115 | 14916 ft | 327 kts | 189° |
| 2026-05-05 19:44 | 36.73064 | -4.81432 | 15495 ft | 332 kts | 189° |
| 2026-05-05 19:44 | 36.70771 | -4.81748 | 16141 ft | 335 kts | 189° |
| 2026-05-05 19:44 | 36.68442 | -4.82074 | 16753 ft | 338 kts | 189° |
| 2026-05-05 19:45 | 36.66105 | -4.82397 | 17362 ft | 340 kts | 188° |
| 2026-05-05 19:45 | 36.63765 | -4.82719 | 17926 ft | 343 kts | 188° |
| 2026-05-05 19:45 | 36.61401 | -4.83043 | 18489 ft | 345 kts | 188° |
| 2026-05-05 19:45 | 36.59005 | -4.83372 | 19039 ft | 348 kts | 188° |
| 2026-05-05 19:46 | 36.56610 | -4.83700 | 19561 ft | 351 kts | 188° |
| 2026-05-05 19:46 | 36.54185 | -4.84031 | 20081 ft | 353 kts | 188° |
| 2026-05-05 19:46 | 36.51733 | -4.84366 | 20600 ft | 355 kts | 188° |
| 2026-05-05 19:46 | 36.49271 | -4.84703 | 21091 ft | 357 kts | 188° |
| 2026-05-05 19:47 | 36.46805 | -4.85039 | 21565 ft | 360 kts | 188° |
| 2026-05-05 19:47 | 36.44282 | -4.85383 | 22031 ft | 362 kts | 188° |
| 2026-05-05 19:47 | 36.41781 | -4.85723 | 22488 ft | 364 kts | 188° |
| 2026-05-05 19:47 | 36.39281 | -4.86064 | 22921 ft | 367 kts | 187° |
| 2026-05-05 19:48 | 36.36745 | -4.86409 | 23326 ft | 370 kts | 187° |
| 2026-05-05 19:48 | 36.34184 | -4.86757 | 23748 ft | 372 kts | 187° |
| 2026-05-05 19:48 | 36.31593 | -4.87108 | 24154 ft | 374 kts | 187° |
| 2026-05-05 19:48 | 36.28989 | -4.87462 | 24542 ft | 376 kts | 187° |
| 2026-05-05 19:49 | 36.26430 | -4.88078 | 24882 ft | 378 kts | 200° |
| 2026-05-05 19:49 | 36.24843 | -4.88969 | 25102 ft | 379 kts | 208° |
| 2026-05-05 19:49 | 36.21804 | -4.91092 | 25622 ft | 381 kts | 207° |
| 2026-05-05 19:49 | 36.19429 | -4.92602 | 25946 ft | 384 kts | 206° |
| 2026-05-05 19:50 | 36.17025 | -4.94077 | 26299 ft | 385 kts | 206° |
| 2026-05-05 19:50 | 36.14627 | -4.95552 | 26624 ft | 388 kts | 206° |
| 2026-05-05 19:50 | 36.12208 | -4.97035 | 26956 ft | 389 kts | 205° |
| 2026-05-05 19:50 | 36.09800 | -4.98498 | 27265 ft | 391 kts | 205° |
| 2026-05-05 19:51 | 36.07340 | -4.99986 | 27580 ft | 393 kts | 205° |
| 2026-05-05 19:51 | 36.04882 | -5.01468 | 27859 ft | 395 kts | 205° |
| 2026-05-05 19:51 | 36.02401 | -5.02961 | 28163 ft | 397 kts | 205° |
| 2026-05-05 19:51 | 35.99935 | -5.04442 | 28402 ft | 400 kts | 205° |
| 2026-05-05 19:52 | 35.97442 | -5.05937 | 28716 ft | 400 kts | 205° |
| 2026-05-05 19:52 | 35.94918 | -5.07448 | 29012 ft | 401 kts | 205° |
| 2026-05-05 19:52 | 35.92426 | -5.08938 | 29254 ft | 403 kts | 205° |
| 2026-05-05 19:52 | 35.89934 | -5.10427 | 29519 ft | 405 kts | 205° |
| 2026-05-05 19:53 | 35.87350 | -5.11970 | 29772 ft | 407 kts | 205° |
| 2026-05-05 19:53 | 35.84832 | -5.13539 | 30027 ft | 408 kts | 208° |
| 2026-05-05 19:53 | 35.82427 | -5.15404 | 30265 ft | 411 kts | 214° |
| 2026-05-05 19:53 | 35.80117 | -5.17502 | 30488 ft | 414 kts | 215° |
| 2026-05-05 19:54 | 35.77832 | -5.19589 | 30715 ft | 415 kts | 214° |
| 2026-05-05 19:54 | 35.75481 | -5.21712 | 30919 ft | 417 kts | 214° |
| 2026-05-05 19:54 | 35.73158 | -5.23820 | 31149 ft | 418 kts | 215° |
| 2026-05-05 19:54 | 35.70834 | -5.25950 | 31344 ft | 420 kts | 215° |
| 2026-05-05 19:55 | 35.68481 | -5.28115 | 31539 ft | 422 kts | 215° |
| 2026-05-05 19:55 | 35.66141 | -5.30271 | 31762 ft | 423 kts | 215° |
| 2026-05-05 19:55 | 35.63778 | -5.32442 | 31958 ft | 424 kts | 215° |
| 2026-05-05 19:55 | 35.61420 | -5.34606 | 32144 ft | 426 kts | 215° |
| 2026-05-05 19:56 | 35.59042 | -5.36787 | 32295 ft | 428 kts | 215° |
| 2026-05-05 19:56 | 35.56660 | -5.38969 | 32528 ft | 428 kts | 215° |
| 2026-05-05 19:56 | 35.54285 | -5.41147 | 32851 ft | 426 kts | 215° |
| 2026-05-05 19:56 | 35.51933 | -5.43303 | 33105 ft | 425 kts | 215° |
| 2026-05-05 19:57 | 35.49548 | -5.45493 | 33338 ft | 425 kts | 215° |
| 2026-05-05 19:57 | 35.47990 | -5.46919 | 33502 ft | 424 kts | 215° |
| 2026-05-05 19:57 | 35.44819 | -5.49797 | 33818 ft | 423 kts | 214° |
| 2026-05-05 19:57 | 35.42473 | -5.51911 | 34044 ft | 423 kts | 214° |
| 2026-05-05 19:58 | 35.40106 | -5.54043 | 34256 ft | 423 kts | 215° |
| 2026-05-05 19:58 | 35.37769 | -5.56177 | 34500 ft | 421 kts | 215° |
| 2026-05-05 19:58 | 35.35406 | -5.58346 | 34741 ft | 420 kts | 215° |
| 2026-05-05 19:58 | 35.33090 | -5.60472 | 34933 ft | 420 kts | 215° |
| 2026-05-05 19:59 | 35.30752 | -5.62608 | 34985 ft | 423 kts | 215° |
| 2026-05-05 19:59 | 35.26008 | -5.66875 | 34997 ft | 421 kts | 214° |
| 2026-05-05 20:00 | 35.21308 | -5.71094 | 35009 ft | 420 kts | 214° |
| 2026-05-05 20:00 | 35.16593 | -5.75346 | 35009 ft | 426 kts | 214° |
| 2026-05-05 20:01 | 35.11789 | -5.79669 | 34998 ft | 428 kts | 214° |
| 2026-05-05 20:01 | 35.07048 | -5.83979 | 34989 ft | 426 kts | 215° |
| 2026-05-05 20:02 | 35.02289 | -5.88314 | 34965 ft | 426 kts | 215° |
| 2026-05-05 20:02 | 34.97561 | -5.92602 | 34967 ft | 425 kts | 215° |
| 2026-05-05 20:03 | 34.92826 | -5.96842 | 34965 ft | 423 kts | 215° |
| 2026-05-05 20:03 | 34.88094 | -6.01039 | 34965 ft | 422 kts | 215° |
| 2026-05-05 20:04 | 34.83347 | -6.05267 | 34965 ft | 422 kts | 216° |
| 2026-05-05 20:04 | 34.78617 | -6.09482 | 34965 ft | 423 kts | 216° |
| 2026-05-05 20:05 | 34.73928 | -6.13693 | 34966 ft | 422 kts | 216° |
| 2026-05-05 20:05 | 34.69225 | -6.17947 | 34966 ft | 423 kts | 216° |
| 2026-05-05 20:06 | 34.64512 | -6.22202 | 34966 ft | 422 kts | 216° |
| 2026-05-05 20:06 | 34.59781 | -6.26377 | 34966 ft | 422 kts | 215° |
| 2026-05-05 20:07 | 34.55036 | -6.30532 | 34965 ft | 422 kts | 215° |
| 2026-05-05 20:07 | 34.50279 | -6.34722 | 34966 ft | 422 kts | 216° |
| 2026-05-05 20:08 | 34.45564 | -6.38934 | 34965 ft | 423 kts | 216° |
| 2026-05-05 20:08 | 34.40836 | -6.43150 | 34965 ft | 423 kts | 216° |
| 2026-05-05 20:09 | 34.36105 | -6.47360 | 34965 ft | 422 kts | 216° |
| 2026-05-05 20:09 | 34.31359 | -6.51546 | 34965 ft | 422 kts | 215° |
| 2026-05-05 20:10 | 34.26615 | -6.55675 | 34966 ft | 423 kts | 215° |
| 2026-05-05 20:10 | 34.21864 | -6.59843 | 34965 ft | 423 kts | 216° |
| 2026-05-05 20:11 | 34.17134 | -6.64044 | 34966 ft | 422 kts | 216° |
| 2026-05-05 20:11 | 34.12400 | -6.68210 | 34967 ft | 422 kts | 215° |
| 2026-05-05 20:12 | 34.07632 | -6.72383 | 34966 ft | 423 kts | 215° |
| 2026-05-05 20:12 | 34.02861 | -6.76511 | 34966 ft | 422 kts | 213° |
| 2026-05-05 20:13 | 33.98000 | -6.80438 | 34965 ft | 422 kts | 213° |
| 2026-05-05 20:13 | 33.93146 | -6.84421 | 34966 ft | 422 kts | 214° |
| 2026-05-05 20:14 | 33.88331 | -6.88391 | 34965 ft | 423 kts | 213° |
| 2026-05-05 20:14 | 33.83467 | -6.92330 | 34965 ft | 422 kts | 213° |
| 2026-05-05 20:15 | 33.78602 | -6.96308 | 34965 ft | 422 kts | 214° |
| 2026-05-05 20:15 | 33.73786 | -7.00272 | 34958 ft | 422 kts | 213° |
| 2026-05-05 20:16 | 33.68912 | -7.04207 | 34950 ft | 420 kts | 213° |
| 2026-05-05 20:16 | 33.64101 | -7.08087 | 34943 ft | 420 kts | 213° |
| 2026-05-05 20:16 | 33.61667 | -7.10060 | 35044 ft | 417 kts | 213° |
| 2026-05-05 20:17 | 33.59291 | -7.12000 | 35046 ft | 418 kts | 214° |
| 2026-05-05 20:17 | 33.54481 | -7.15949 | 35047 ft | 417 kts | 214° |
| 2026-05-05 20:18 | 33.49739 | -7.19824 | 35047 ft | 415 kts | 213° |
| 2026-05-05 20:18 | 33.44946 | -7.23719 | 35050 ft | 415 kts | 214° |
| 2026-05-05 20:19 | 33.40190 | -7.27598 | 35055 ft | 416 kts | 214° |
| 2026-05-05 20:19 | 33.35384 | -7.31499 | 35059 ft | 416 kts | 214° |
| 2026-05-05 20:20 | 33.30612 | -7.35349 | 35063 ft | 415 kts | 213° |
| 2026-05-05 20:20 | 33.25829 | -7.39175 | 35068 ft | 416 kts | 213° |
| 2026-05-05 20:21 | 33.21005 | -7.43027 | 35072 ft | 415 kts | 213° |
| 2026-05-05 20:21 | 33.16237 | -7.46875 | 35074 ft | 416 kts | 214° |
| 2026-05-05 20:22 | 33.11442 | -7.50746 | 35074 ft | 415 kts | 213° |
| 2026-05-05 20:22 | 33.06527 | -7.54253 | 35074 ft | 414 kts | 210° |
| 2026-05-05 20:23 | 33.01561 | -7.57701 | 35074 ft | 415 kts | 211° |
| 2026-05-05 20:23 | 32.96596 | -7.61211 | 35074 ft | 414 kts | 211° |
| 2026-05-05 20:24 | 32.91618 | -7.64708 | 35074 ft | 414 kts | 211° |
| 2026-05-05 20:24 | 32.86659 | -7.68171 | 35074 ft | 415 kts | 210° |
| 2026-05-05 20:25 | 32.81714 | -7.71639 | 35074 ft | 414 kts | 210° |
| 2026-05-05 20:25 | 32.76772 | -7.75133 | 35074 ft | 414 kts | 210° |
| 2026-05-05 20:26 | 32.71800 | -7.78573 | 35074 ft | 414 kts | 210° |
| 2026-05-05 20:26 | 32.66828 | -7.82009 | 35073 ft | 414 kts | 210° |
| 2026-05-05 20:27 | 32.61887 | -7.85478 | 35068 ft | 414 kts | 211° |
| 2026-05-05 20:27 | 32.56900 | -7.88959 | 35046 ft | 414 kts | 210° |
| 2026-05-05 20:28 | 32.51954 | -7.92360 | 35017 ft | 414 kts | 210° |
| 2026-05-05 20:28 | 32.46987 | -7.95812 | 34994 ft | 415 kts | 211° |
| 2026-05-05 20:29 | 32.42027 | -7.99280 | 34993 ft | 415 kts | 210° |
| 2026-05-05 20:29 | 32.37039 | -8.02720 | 34993 ft | 414 kts | 210° |
| 2026-05-05 20:30 | 32.32058 | -8.06147 | 34993 ft | 415 kts | 210° |
| 2026-05-05 20:30 | 32.27072 | -8.09600 | 34993 ft | 415 kts | 210° |
| 2026-05-05 20:31 | 32.22138 | -8.13054 | 34993 ft | 415 kts | 210° |
| 2026-05-05 20:31 | 32.17171 | -8.16493 | 34993 ft | 416 kts | 211° |
| 2026-05-05 20:32 | 32.12435 | -8.20408 | 34991 ft | 415 kts | 223° |
| 2026-05-05 20:32 | 32.08696 | -8.25633 | 34992 ft | 417 kts | 230° |
| 2026-05-05 20:33 | 32.05104 | -8.30939 | 34992 ft | 417 kts | 230° |
| 2026-05-05 20:33 | 32.01518 | -8.36344 | 34993 ft | 417 kts | 231° |
| 2026-05-05 20:34 | 31.97977 | -8.41732 | 34993 ft | 417 kts | 231° |
| 2026-05-05 20:34 | 31.94437 | -8.47092 | 34993 ft | 417 kts | 230° |
| 2026-05-05 20:35 | 31.90875 | -8.52463 | 34993 ft | 418 kts | 230° |
| 2026-05-05 20:35 | 31.87304 | -8.57891 | 34992 ft | 417 kts | 231° |
| 2026-05-05 20:36 | 31.83703 | -8.63285 | 34994 ft | 418 kts | 230° |
| 2026-05-05 20:36 | 31.80137 | -8.68648 | 34993 ft | 418 kts | 230° |
| 2026-05-05 20:37 | 31.76588 | -8.74009 | 34993 ft | 416 kts | 230° |
| 2026-05-05 20:37 | 31.73018 | -8.79377 | 34993 ft | 417 kts | 230° |
| 2026-05-05 20:38 | 31.69415 | -8.84728 | 34992 ft | 417 kts | 230° |
| 2026-05-05 20:38 | 31.65818 | -8.90049 | 34997 ft | 417 kts | 230° |
| 2026-05-05 20:39 | 31.62214 | -8.95411 | 35006 ft | 419 kts | 230° |
| 2026-05-05 20:39 | 31.58628 | -9.00817 | 35014 ft | 423 kts | 230° |
| 2026-05-05 20:40 | 31.55010 | -9.06230 | 35018 ft | 424 kts | 230° |
| 2026-05-05 20:40 | 31.51347 | -9.11692 | 35020 ft | 426 kts | 230° |
| 2026-05-05 20:41 | 31.47701 | -9.17126 | 35021 ft | 429 kts | 230° |
| 2026-05-05 20:41 | 31.44008 | -9.22627 | 35020 ft | 427 kts | 230° |
| 2026-05-05 20:42 | 31.40364 | -9.28069 | 35020 ft | 426 kts | 230° |
| 2026-05-05 20:42 | 31.36679 | -9.33501 | 35020 ft | 427 kts | 230° |
| 2026-05-05 20:43 | 31.32975 | -9.38907 | 35019 ft | 427 kts | 230° |
| 2026-05-05 20:43 | 31.29309 | -9.44360 | 35020 ft | 426 kts | 230° |
| 2026-05-05 20:44 | 31.25642 | -9.49775 | 35019 ft | 427 kts | 230° |
| 2026-05-05 20:44 | 31.21949 | -9.55166 | 35020 ft | 427 kts | 230° |
| 2026-05-05 20:45 | 31.16437 | -9.63311 | 35020 ft | 427 kts | 230° |
| 2026-05-05 20:45 | 31.12721 | -9.68743 | 35019 ft | 427 kts | 229° |
| 2026-05-05 20:46 | 31.09037 | -9.74137 | 35020 ft | 426 kts | 230° |
| 2026-05-05 20:46 | 31.05351 | -9.79559 | 35020 ft | 428 kts | 230° |
| 2026-05-05 20:47 | 31.01655 | -9.84977 | 35020 ft | 427 kts | 230° |
| 2026-05-05 20:47 | 30.97995 | -9.90344 | 35019 ft | 424 kts | 229° |
| 2026-05-05 20:48 | 30.94327 | -9.95674 | 35021 ft | 422 kts | 229° |
| 2026-05-05 20:48 | 30.90650 | -10.00972 | 35020 ft | 420 kts | 229° |
| 2026-05-05 20:49 | 30.86995 | -10.06242 | 35017 ft | 419 kts | 229° |
| 2026-05-05 20:49 | 30.83341 | -10.11535 | 35002 ft | 419 kts | 229° |
| 2026-05-05 20:50 | 30.79693 | -10.16855 | 34994 ft | 420 kts | 229° |
| 2026-05-05 20:50 | 30.76047 | -10.22146 | 34994 ft | 418 kts | 229° |
| 2026-05-05 20:51 | 30.72417 | -10.27371 | 35003 ft | 418 kts | 229° |
| 2026-05-05 20:51 | 30.68780 | -10.32635 | 35006 ft | 420 kts | 229° |
| 2026-05-05 20:52 | 30.65136 | -10.37913 | 34988 ft | 419 kts | 229° |
| 2026-05-05 20:52 | 30.61492 | -10.43179 | 34969 ft | 419 kts | 229° |
| 2026-05-05 20:53 | 30.57821 | -10.48470 | 34950 ft | 418 kts | 229° |
| 2026-05-05 20:53 | 30.54179 | -10.53682 | 34940 ft | 419 kts | 229° |
| 2026-05-05 20:54 | 30.50482 | -10.58928 | 34944 ft | 419 kts | 229° |
| 2026-05-05 20:54 | 30.46824 | -10.64162 | 34951 ft | 420 kts | 229° |
| 2026-05-05 20:55 | 30.43152 | -10.69436 | 34949 ft | 419 kts | 228° |
| 2026-05-05 20:55 | 30.39491 | -10.74654 | 34939 ft | 419 kts | 228° |
| 2026-05-05 20:56 | 30.35816 | -10.79906 | 34939 ft | 420 kts | 228° |
| 2026-05-05 20:56 | 30.32145 | -10.85162 | 34938 ft | 421 kts | 228° |
| 2026-05-05 20:57 | 30.28452 | -10.90418 | 34939 ft | 427 kts | 228° |
| 2026-05-05 20:57 | 30.24686 | -10.95778 | 34939 ft | 431 kts | 227° |
| 2026-05-05 20:58 | 30.20883 | -11.01162 | 34938 ft | 434 kts | 227° |
| 2026-05-05 20:58 | 30.17052 | -11.06560 | 34939 ft | 439 kts | 227° |
| 2026-05-05 20:59 | 30.13217 | -11.12001 | 34938 ft | 438 kts | 227° |
| 2026-05-05 20:59 | 30.09352 | -11.17465 | 34939 ft | 437 kts | 227° |
| 2026-05-05 21:00 | 30.05511 | -11.22849 | 34939 ft | 437 kts | 227° |
| 2026-05-05 21:00 | 30.01652 | -11.28264 | 34938 ft | 437 kts | 227° |
| 2026-05-05 21:01 | 29.97822 | -11.33680 | 34939 ft | 437 kts | 227° |
| 2026-05-05 21:01 | 29.93982 | -11.39092 | 34938 ft | 437 kts | 227° |
| 2026-05-05 21:02 | 29.90118 | -11.44512 | 34939 ft | 437 kts | 227° |
| 2026-05-05 21:02 | 29.86278 | -11.49912 | 34939 ft | 437 kts | 227° |
| 2026-05-05 21:03 | 29.82424 | -11.55333 | 34938 ft | 437 kts | 227° |
| 2026-05-05 21:03 | 29.78729 | -11.60511 | 34938 ft | 437 kts | 227° |
| 2026-05-05 21:04 | 29.74851 | -11.65870 | 34939 ft | 437 kts | 226° |
| 2026-05-05 21:04 | 29.70978 | -11.71226 | 34938 ft | 436 kts | 226° |
| 2026-05-05 21:05 | 29.67122 | -11.76572 | 34939 ft | 437 kts | 227° |
| 2026-05-05 21:05 | 29.63269 | -11.81958 | 34939 ft | 437 kts | 227° |
| 2026-05-05 21:06 | 29.59401 | -11.87363 | 34939 ft | 436 kts | 227° |
| 2026-05-05 21:06 | 29.55541 | -11.92749 | 34939 ft | 437 kts | 226° |
| 2026-05-05 21:07 | 29.51660 | -11.98087 | 34938 ft | 436 kts | 226° |
| 2026-05-05 21:07 | 29.47779 | -12.03421 | 34939 ft | 437 kts | 227° |
| 2026-05-05 21:08 | 29.43899 | -12.08804 | 34939 ft | 437 kts | 227° |
| 2026-05-05 21:08 | 29.40026 | -12.14150 | 34939 ft | 437 kts | 226° |
| 2026-05-05 21:09 | 29.36157 | -12.19493 | 34939 ft | 437 kts | 227° |
| 2026-05-05 21:09 | 29.32295 | -12.24806 | 34939 ft | 437 kts | 227° |
| 2026-05-05 21:10 | 29.28391 | -12.30153 | 34939 ft | 437 kts | 227° |
| 2026-05-05 21:10 | 29.24493 | -12.35455 | 34939 ft | 437 kts | 226° |
| 2026-05-05 21:11 | 29.20615 | -12.40771 | 34938 ft | 437 kts | 227° |
| 2026-05-05 21:11 | 29.16725 | -12.46123 | 34938 ft | 437 kts | 227° |
| 2026-05-05 21:12 | 29.12833 | -12.51444 | 34940 ft | 437 kts | 226° |
| 2026-05-05 21:12 | 29.08931 | -12.56741 | 34939 ft | 434 kts | 226° |
| 2026-05-05 21:13 | 29.05068 | -12.62011 | 34938 ft | 428 kts | 226° |
| 2026-05-05 21:13 | 29.01278 | -12.67170 | 34938 ft | 422 kts | 225° |
| 2026-05-05 21:14 | 28.97550 | -12.72237 | 34939 ft | 416 kts | 225° |
| 2026-05-05 21:14 | 28.93851 | -12.77259 | 34939 ft | 411 kts | 224° |
| 2026-05-05 21:15 | 28.90388 | -12.82469 | 34940 ft | 418 kts | 233° |
| 2026-05-05 21:15 | 28.87516 | -12.88285 | 34939 ft | 422 kts | 234° |
| 2026-05-05 21:16 | 28.84635 | -12.94101 | 34938 ft | 421 kts | 234° |
| 2026-05-05 21:16 | 28.81788 | -12.99908 | 34939 ft | 423 kts | 235° |
| 2026-05-05 21:17 | 28.78909 | -13.05795 | 35043 ft | 429 kts | 236° |
| 2026-05-05 21:17 | 28.75986 | -13.11775 | 35047 ft | 438 kts | 236° |
| 2026-05-05 21:18 | 28.73003 | -13.17885 | 35046 ft | 443 kts | 237° |
| 2026-05-05 21:18 | 28.70001 | -13.24029 | 35047 ft | 444 kts | 237° |
| 2026-05-05 21:19 | 28.67020 | -13.30122 | 35047 ft | 443 kts | 237° |
| 2026-05-05 21:19 | 28.64016 | -13.36253 | 35047 ft | 443 kts | 237° |
| 2026-05-05 21:20 | 28.61022 | -13.42354 | 35043 ft | 443 kts | 237° |
| 2026-05-05 21:20 | 28.58028 | -13.48445 | 35035 ft | 443 kts | 237° |
| 2026-05-05 21:21 | 28.55009 | -13.54580 | 35027 ft | 443 kts | 237° |
| 2026-05-05 21:21 | 28.52013 | -13.60659 | 35022 ft | 443 kts | 237° |
| 2026-05-05 21:22 | 28.48991 | -13.66781 | 35020 ft | 443 kts | 237° |
| 2026-05-05 21:22 | 28.45978 | -13.72877 | 35020 ft | 443 kts | 237° |
| 2026-05-05 21:23 | 28.42977 | -13.78939 | 35020 ft | 443 kts | 237° |
| 2026-05-05 21:23 | 28.39956 | -13.85032 | 35020 ft | 443 kts | 237° |
| 2026-05-05 21:24 | 28.36930 | -13.91126 | 35020 ft | 443 kts | 237° |
| 2026-05-05 21:24 | 28.33918 | -13.97183 | 35020 ft | 443 kts | 237° |
| 2026-05-05 21:25 | 28.30880 | -14.03285 | 35020 ft | 443 kts | 237° |
| 2026-05-05 21:25 | 28.27867 | -14.09327 | 35020 ft | 443 kts | 237° |
| 2026-05-05 21:26 | 28.24824 | -14.15419 | 35020 ft | 443 kts | 237° |
| 2026-05-05 21:26 | 28.21802 | -14.21462 | 35020 ft | 443 kts | 237° |
| 2026-05-05 21:27 | 28.18759 | -14.27537 | 35020 ft | 443 kts | 237° |
| 2026-05-05 21:27 | 28.15713 | -14.33610 | 35020 ft | 443 kts | 237° |
| 2026-05-05 21:28 | 28.12687 | -14.39633 | 35020 ft | 443 kts | 237° |
| 2026-05-05 21:28 | 28.09644 | -14.45682 | 35020 ft | 443 kts | 237° |
| 2026-05-05 21:29 | 28.06582 | -14.51760 | 35020 ft | 443 kts | 237° |
| 2026-05-05 21:29 | 28.03536 | -14.57798 | 35020 ft | 443 kts | 237° |
| 2026-05-05 21:30 | 28.00666 | -14.63984 | 35020 ft | 446 kts | 243° |
| 2026-05-05 21:30 | 27.98808 | -14.70758 | 35020 ft | 451 kts | 252° |
| 2026-05-05 21:31 | 27.97294 | -14.77696 | 35020 ft | 451 kts | 252° |
| 2026-05-05 21:31 | 27.95762 | -14.84552 | 35020 ft | 451 kts | 252° |
| 2026-05-05 21:32 | 27.94244 | -14.91469 | 35019 ft | 454 kts | 252° |
| 2026-05-05 21:32 | 27.92699 | -14.98499 | 35020 ft | 465 kts | 253° |
| 2026-05-05 21:33 | 27.91135 | -15.05637 | 35021 ft | 477 kts | 256° |
| 2026-05-05 21:33 | 27.89526 | -15.12985 | 35020 ft | 485 kts | 259° |
| 2026-05-05 21:34 | 27.87910 | -15.20352 | 35019 ft | 483 kts | 259° |
| 2026-05-05 21:34 | 27.86294 | -15.27683 | 35020 ft | 482 kts | 259° |
| 2026-05-05 21:35 | 27.84668 | -15.35049 | 35019 ft | 483 kts | 259° |
| 2026-05-05 21:35 | 27.83291 | -15.42417 | 34894 ft | 482 kts | 266° |
| 2026-05-05 21:36 | 27.82983 | -15.46181 | 34035 ft | 484 kts | 271° |
| 2026-05-05 21:36 | 27.82870 | -15.50016 | 33012 ft | 488 kts | 272° |
| 2026-05-05 21:36 | 27.82770 | -15.53856 | 31963 ft | 492 kts | 271° |
| 2026-05-05 21:36 | 27.82653 | -15.57727 | 30870 ft | 497 kts | 271° |
| 2026-05-05 21:37 | 27.82540 | -15.61569 | 29751 ft | 501 kts | 271° |
| 2026-05-05 21:37 | 27.82435 | -15.65524 | 28558 ft | 505 kts | 271° |
| 2026-05-05 21:37 | 27.82337 | -15.69499 | 27307 ft | 509 kts | 270° |
| 2026-05-05 21:37 | 27.82240 | -15.73489 | 25986 ft | 511 kts | 270° |
| 2026-05-05 21:38 | 27.82143 | -15.77457 | 24737 ft | 496 kts | 270° |
| 2026-05-05 21:38 | 27.82049 | -15.81256 | 23902 ft | 487 kts | 270° |
| 2026-05-05 21:38 | 27.81958 | -15.85065 | 22983 ft | 483 kts | 270° |
| 2026-05-05 21:38 | 27.81869 | -15.88812 | 22076 ft | 479 kts | 270° |
| 2026-05-05 21:39 | 27.81779 | -15.92537 | 21166 ft | 475 kts | 270° |
| 2026-05-05 21:39 | 27.81688 | -15.96281 | 20234 ft | 467 kts | 270° |
| 2026-05-05 21:39 | 27.81601 | -15.99828 | 19375 ft | 450 kts | 270° |
| 2026-05-05 21:39 | 27.81514 | -16.03354 | 18494 ft | 447 kts | 269° |
| 2026-05-05 21:40 | 27.81428 | -16.06841 | 17623 ft | 444 kts | 269° |
| 2026-05-05 21:40 | 27.81341 | -16.10314 | 16751 ft | 440 kts | 269° |
| 2026-05-05 21:40 | 27.81256 | -16.13744 | 15900 ft | 434 kts | 270° |
| 2026-05-05 21:40 | 27.81362 | -16.17029 | 14906 ft | 419 kts | 276° |
| 2026-05-05 21:41 | 27.81671 | -16.20304 | 13981 ft | 416 kts | 277° |
| 2026-05-05 21:41 | 27.81937 | -16.23526 | 13162 ft | 412 kts | 276° |
| 2026-05-05 21:41 | 27.82166 | -16.26750 | 12357 ft | 408 kts | 275° |
| 2026-05-05 21:41 | 27.82386 | -16.29906 | 11595 ft | 403 kts | 275° |
| 2026-05-05 21:42 | 27.82597 | -16.33008 | 11094 ft | 392 kts | 275° |
| 2026-05-05 21:42 | 27.82797 | -16.36034 | 10823 ft | 375 kts | 275° |
| 2026-05-05 21:42 | 27.82983 | -16.38883 | 10643 ft | 358 kts | 275° |
| 2026-05-05 21:42 | 27.83162 | -16.41637 | 10459 ft | 343 kts | 275° |
| 2026-05-05 21:43 | 27.83330 | -16.44250 | 10274 ft | 330 kts | 275° |
| 2026-05-05 21:43 | 27.83494 | -16.46813 | 10022 ft | 320 kts | 275° |
| 2026-05-05 21:43 | 27.83653 | -16.49337 | 9458 ft | 322 kts | 275° |
| 2026-05-05 21:43 | 27.83803 | -16.51789 | 8994 ft | 311 kts | 275° |
| 2026-05-05 21:44 | 27.83957 | -16.54195 | 8571 ft | 303 kts | 275° |
| 2026-05-05 21:44 | 27.84109 | -16.56567 | 8142 ft | 300 kts | 275° |
| 2026-05-05 21:44 | 27.84255 | -16.58882 | 7731 ft | 297 kts | 275° |
| 2026-05-05 21:44 | 27.84400 | -16.61195 | 7320 ft | 295 kts | 275° |
| 2026-05-05 21:45 | 27.84545 | -16.63507 | 6903 ft | 294 kts | 275° |
| 2026-05-05 21:45 | 27.84690 | -16.65834 | 6469 ft | 293 kts | 275° |
| 2026-05-05 21:45 | 27.84830 | -16.68090 | 6065 ft | 292 kts | 275° |
| 2026-05-05 21:45 | 27.85031 | -16.70362 | 5645 ft | 290 kts | 284° |
| 2026-05-05 21:46 | 27.85893 | -16.72397 | 5241 ft | 283 kts | 314° |
| 2026-05-05 21:46 | 27.87414 | -16.73687 | 4996 ft | 270 kts | 337° |
| 2026-05-05 21:46 | 27.89162 | -16.74309 | 4749 ft | 260 kts | 351° |
| 2026-05-05 21:46 | 27.90894 | -16.74690 | 4513 ft | 250 kts | 351° |
| 2026-05-05 21:47 | 27.92567 | -16.75079 | 4237 ft | 242 kts | 351° |
| 2026-05-05 21:47 | 27.94172 | -16.75452 | 3985 ft | 228 kts | 351° |
| 2026-05-05 21:47 | 27.95686 | -16.75802 | 3706 ft | 214 kts | 352° |
| 2026-05-05 21:47 | 27.97101 | -16.75770 | 3489 ft | 203 kts | 23° |
| 2026-05-05 21:48 | 27.98196 | -16.74798 | 3239 ft | 201 kts | 58° |
| 2026-05-05 21:48 | 27.98765 | -16.73388 | 2956 ft | 193 kts | 68° |
| 2026-05-05 21:48 | 27.99272 | -16.72048 | 2691 ft | 180 kts | 68° |
| 2026-05-05 21:48 | 27.99729 | -16.70757 | 2443 ft | 173 kts | 69° |
| 2026-05-05 21:49 | 28.00181 | -16.69478 | 2209 ft | 176 kts | 69° |
| 2026-05-05 21:49 | 28.00624 | -16.68202 | 1967 ft | 176 kts | 69° |
| 2026-05-05 21:49 | 28.01061 | -16.66953 | 1725 ft | 162 kts | 69° |
| 2026-05-05 21:49 | 28.01447 | -16.65847 | 1529 ft | 147 kts | 69° |
| 2026-05-05 21:50 | 28.01827 | -16.64760 | 1328 ft | 147 kts | 69° |
| 2026-05-05 21:50 | 28.02204 | -16.63680 | 1125 ft | 147 kts | 69° |
| 2026-05-05 21:50 | 28.02579 | -16.62606 | 928 ft | 146 kts | 69° |
| 2026-05-05 21:50 | 28.02952 | -16.61533 | 726 ft | 146 kts | 69° |
| 2026-05-05 21:51 | 28.03321 | -16.60465 | 533 ft | 146 kts | 69° |
| 2026-05-05 21:51 | 28.03694 | -16.59402 | 344 ft | 144 kts | 69° |
| 2026-05-05 21:51 | 28.04066 | -16.58346 | 187 ft | 142 kts | 69° |
| 2026-05-05 21:51 | 28.04365 | -16.57484 | 190 ft | 82 kts | 68° |
| 2026-05-05 21:52 | 28.04673 | -16.56854 | 196 ft | 24 kts | 48° |
| 2026-05-05 21:52 | 28.04779 | -16.56778 | 202 ft | 15 kts | 320° |
| 2026-05-05 21:52 | 28.04756 | -16.56917 | 202 ft | 24 kts | 249° |
| 2026-05-05 21:53 | 28.04684 | -16.57120 | 209 ft | 28 kts | 242° |
| 2026-05-05 21:53 | 28.04600 | -16.57342 | 204 ft | 31 kts | 248° |
| 2026-05-05 21:53 | 28.04528 | -16.57550 | 209 ft | 27 kts | 249° |
| 2026-05-05 21:53 | 28.04461 | -16.57741 | 208 ft | 26 kts | 249° |
| 2026-05-05 21:54 | 28.04419 | -16.57881 | 207 ft | 10 kts | 281° |
| 2026-05-05 21:54 | 28.04497 | -16.57925 | 213 ft | 14 kts | 335° |
| 2026-05-05 21:54 | 28.04504 | -16.58023 | 211 ft | 15 kts | 248° |
| 2026-05-05 21:54 | 28.04472 | -16.58130 | 208 ft | 9 kts | 270° |
| 2026-05-05 21:55 | 28.04506 | -16.58154 | 210 ft | 2 kts | 341° |
| 2026-05-05 21:55 | 28.04527 | -16.58163 | 212 ft | 3 kts | 338° |
| 2026-05-05 21:55 | 28.04544 | -16.58170 | 213 ft | 0 kts | 339° |